• Join FlightAware (Why Join?)
  • Login
  • US Flag 
05:41AM EDT


 

Airport Tracker/Info


-or-


 

Live Flight TrackerFlight Track Log ✈ N566UA ✈ 17-Apr-2013 ✈ KIAH - KDEN

Flight Track Log - Related Links

Times and Time Zones

All times are in EDT time to prevent confusion due to time zone crossing. See the N566UA flight status page for this flight to view local times or setup timezone preferences in your user account.

Time Position Orientation Groundspeed Altitude Reporting Facility
EDT Latitude Longitude Course Direction KTS MPH feet Rate Location/Type
07:12AM 29.9639 -95.3433 334° Northwest 161 185 900  Level Houston Center
07:13AM 29.9978 -95.3006 48° Northeast 271 312 3,300 2,400 Climbing Houston Center
07:14AM 30.1777 -95.4499 327° Northwest  Level FlightAware Approximate
07:14AM 30.0511 -95.3019 359° North 251 289 5,100  Level Houston Center
07:14AM 30.0722 -95.3133 335° Northwest 299 344 5,700 3,240 Climbing Houston Center
07:15AM 30.2750 -95.5083 334° Northwest  Level FlightAware Approximate
07:15AM 30.1239 -95.3508 328° Northwest 298 343 8,400  Level Houston Center
07:16AM 30.3740 -95.5633 334° Northwest  Level FlightAware Approximate
07:16AM 30.1953 -95.3997 329° Northwest 301 346 11,400  Level Houston Center
07:17AM 30.4730 -95.6183 334° Northwest  Level FlightAware Approximate
07:17AM 30.2783 -95.4625 327° Northwest 338 389 13,600  Level Houston Center
07:18AM 30.3672 -95.5289 327° Northwest 369 425 16,500 3,000 Climbing Houston Center
07:19AM 30.4558 -95.5911 329° Northwest 375 432 19,700 2,880 Climbing Houston Center
07:20AM 30.5444 -95.6567 328° Northwest 376 433 22,400 2,400 Climbing Houston Center
07:21AM 30.6453 -95.7108 335° Northwest 391 450 24,600 2,100 Climbing Houston Center
07:22AM 30.7472 -95.7672 335° Northwest 396 456 26,700 1,980 Climbing Houston Center
07:23AM 30.8536 -95.8244 335° Northwest 409 471 28,700 1,800 Climbing Houston Center
07:24AM 30.9686 -95.8853 336° Northwest 440 506 30,400 1,560 Climbing Houston Center
07:25AM 31.0803 -95.9464 335° Northwest 441 507 31,900 1,740 Climbing Houston Center
07:26AM 31.1972 -95.9961 340° North 437 503 34,000 1,020 Climbing Houston Center
07:27AM 31.3122 -96.0419 341° North 416 479 34,000  Level Fort Worth Center
07:28AM 31.4256 -96.0867 341° North 416 479 34,000  Level Fort Worth Center
07:29AM 31.5431 -96.1311 342° North 433 498 34,000  Level Fort Worth Center
07:30AM 31.6603 -96.1758 342° North 433 498 34,000  Level Fort Worth Center
07:31AM 31.7778 -96.2233 341° North 438 504 34,000  Level Fort Worth Center
07:32AM 31.8867 -96.2658 342° North 430 495 34,000  Level Fort Worth Center
07:33AM 32.0019 -96.3133 341° North 425 489 34,000  Level Fort Worth Center
07:34AM 32.1169 -96.3561 343° North 432 497 34,000  Level Fort Worth Center
07:35AM 32.2344 -96.4039 341° North 432 497 34,000  Level Fort Worth Center
07:36AM 32.3517 -96.4444 344° North 427 491 34,000  Level Fort Worth Center
07:37AM 32.4689 -96.4900 342° North 434 499 34,000  Level Fort Worth Center
07:38AM 32.5839 -96.5356 342° North 434 499 34,000  Level Fort Worth Center
07:39AM 32.6992 -96.5789 342° North 429 494 34,000  Level Fort Worth Center
07:40AM 32.8142 -96.6225 342° North 429 494 34,000  Level Fort Worth Center
07:41AM 32.9333 -96.6683 342° North 434 499 34,000  Level Fort Worth Center
07:42AM 33.0528 -96.7119 343° North 439 505 34,000  Level Fort Worth Center
07:43AM 33.1697 -96.7583 342° North 445 512 34,000  Level Fort Worth Center
07:44AM 33.2869 -96.8022 343° North 445 512 34,000  Level Fort Worth Center
07:45AM 33.4042 -96.8511 341° North 445 512 34,000  Level Fort Worth Center
07:46AM 33.5233 -96.8978 342° North 445 512 34,000  Level Fort Worth Center
07:47AM 33.6256 -96.9394 341° North 445 512 34,000  Level Fort Worth Center
07:48AM 33.7447 -96.9839 343° North 445 512 34,000  Level Fort Worth Center
07:49AM 33.8472 -97.0608 328° Northwest 432 497 34,000  Level Fort Worth Center
07:50AM 33.9289 -97.1681 313° West 429 494 34,000  Level Fort Worth Center
07:51AM 34.0106 -97.2706 314° West 429 494 34,000  Level Fort Worth Center
07:52AM 34.0919 -97.3708 314° West 424 488 34,000  Level Fort Worth Center
07:53AM 34.1794 -97.4839 313° West 419 482 34,000  Level Fort Worth Center
07:54AM 34.2650 -97.5869 315° West 419 482 34,000  Level Fort Worth Center
07:55AM 34.3483 -97.6878 315° West 425 489 34,000  Level Fort Worth Center
07:56AM 34.4336 -97.7886 316° Northwest 425 489 34,000  Level Fort Worth Center
07:57AM 34.5167 -97.8897 315° West 425 489 34,000  Level Fort Worth Center
07:58AM 34.5894 -97.9786 315° West 420 483 34,000  Level Fort Worth Center
07:59AM 34.6744 -98.0775 316° Northwest 420 483 34,000  Level Fort Worth Center
08:00AM 34.7572 -98.1794 315° West 420 483 34,000  Level Fort Worth Center
08:01AM 34.8400 -98.2789 315° West 415 478 34,000  Level Fort Worth Center
08:02AM 34.9228 -98.3783 315° West 410 472 34,000  Level Fort Worth Center
08:03AM 35.0033 -98.4756 315° West 404 465 34,000  Level Fort Worth Center
08:04AM 35.0942 -98.5833 316° Northwest 410 472 34,000  Level Fort Worth Center
08:05AM 35.1767 -98.6836 315° West 410 472 34,000  Level Fort Worth Center
08:06AM 35.2611 -98.7864 315° West 410 472 34,000  Level Fort Worth Center
08:07AM 35.3411 -98.8897 314° West 410 472 34,000  Level Fort Worth Center
08:08AM 35.4253 -98.9931 315° West 410 472 34,000  Level Fort Worth Center
08:09AM 35.5053 -99.0939 314° West 410 472 34,000  Level Fort Worth Center
08:10AM 35.6367 -99.2564 315° West 419 482 34,000  Level Kansas City Center
08:11AM 35.7197 -99.3608 314° West 420 483 34,000  Level Kansas City Center
08:12AM 35.8033 -99.4647 315° West 420 483 34,000  Level Kansas City Center
08:13AM 35.8858 -99.5697 314° West 421 484 34,000  Level Kansas City Center
08:15AM 35.9686 -99.6739 314° West 420 483 34,000  Level Kansas City Center
08:16AM 36.0500 -99.7783 314° West 418 481 34,000  Level Kansas City Center
08:17AM 36.1311 -99.8819 314° West 418 481 34,000  Level Kansas City Center
08:18AM 36.2122 -99.9858 314° West 417 480 34,000  Level Kansas City Center
08:19AM 36.2933 -100.0878 315° West 414 476 34,000  Level Kansas City Center
08:20AM 36.3725 -100.1914 314° West 412 474 34,000  Level Kansas City Center
08:21AM 36.4522 -100.2942 314° West 412 474 34,000  Level Kansas City Center
08:22AM 36.5411 -100.4089 314° West 413 475 34,000  Level Kansas City Center
08:23AM 36.6175 -100.5081 314° West 414 476 34,000  Level Kansas City Center
08:24AM 36.7069 -100.6247 314° West 415 478 34,000  Level Kansas City Center
08:25AM 36.7842 -100.7269 313° West 420 483 34,000  Level Kansas City Center
08:26AM 36.8611 -100.8286 313° West 421 484 34,000  Level Kansas City Center
08:27AM 36.9514 -100.9469 314° West 421 484 34,000  Level Kansas City Center
08:28AM 37.0283 -101.0483 314° West 419 482 34,000  Level Kansas City Center
08:29AM 37.1050 -101.1519 313° West 420 483 34,000  Level Kansas City Center
08:30AM 37.1958 -101.2731 313° West 425 489 34,000  Level Kansas City Center
08:31AM 37.2731 -101.3764 313° West 423 487 34,000  Level Kansas City Center
08:32AM 37.3511 -101.4814 313° West 425 489 34,000  Level Kansas City Center
08:33AM 37.4422 -101.6039 313° West 427 491 34,000  Level Kansas City Center
08:34AM 37.5203 -101.7103 313° West 429 494 34,000  Level Kansas City Center
08:35AM 37.5981 -101.8161 313° West 429 494 34,000  Level Kansas City Center
08:36AM 37.6769 -101.9225 313° West 432 497 34,000  Level Denver Center
08:37AM 37.7544 -102.0289 313° West 430 495 34,000  Level Denver Center
08:38AM 37.8467 -102.1533 313° West 433 498 34,000  Level Denver Center
08:39AM 37.9256 -102.2606 313° West 436 502 34,000  Level Denver Center
08:40AM 38.0050 -102.3672 313° West 436 502 34,000  Level Denver Center
08:41AM 38.0967 -102.4933 313° West 436 502 34,000  Level Denver Center
08:42AM 38.1761 -102.6022 313° West 438 504 34,000  Level Denver Center
08:43AM 38.2561 -102.7094 314° West 435 501 34,000  Level Denver Center
08:44AM 38.3467 -102.8375 312° West 435 501 34,000  Level Denver Center
08:45AM 38.4253 -102.9450 313° West 434 499 34,000  Level Denver Center
08:46AM 38.5022 -103.0536 312° West 430 495 34,000  Level Denver Center
08:47AM 38.5828 -103.1639 313° West 427 491 34,000  Level Denver Center
08:48AM 38.6625 -103.2747 313° West 421 484 34,000 -780 Level Denver Center
08:49AM 38.7417 -103.3869 312° West 421 484 32,500 -2,220 Descending Denver Center
08:50AM 38.8347 -103.5167 313° West 427 491 29,600 -2,460 Descending Denver Center
08:51AM 38.9019 -103.6125 312° West 421 484 27,600 -2,160 Descending Denver Center
08:52AM 38.9800 -103.7233 312° West 416 479 25,300 -2,280 Descending Denver Center
08:53AM 39.0569 -103.8314 313° West 408 470 23,000 -2,400 Descending Denver Center
08:54AM 39.1428 -103.9561 312° West 395 455 20,500 -2,280 Descending Denver Center
08:55AM 39.2153 -104.0603 312° West 389 448 18,400 -1,500 Descending Denver Center
08:56AM 39.2742 -104.1569 308° West 367 422 17,500 -1,200 Descending Denver Center
08:57AM 39.3500 -104.2292 324° Northwest 343 395 16,000 -1,020 Descending Denver Center
08:58AM 39.4161 -104.3025 319° Northwest 312 359 15,500 -1,020 Descending Denver Center
08:59AM 39.4019 -104.3844 257° West 226 260 14,000 -1,560 Descending Denver Center
09:00AM 39.4094 -104.4706 276° West 248 285 12,400 -1,140 Descending Denver Center
09:01AM 39.4192 -104.5553 278° West 244 281 11,800 -600 Descending Denver Center
09:02AM 39.4708 -104.6106 320° Northwest 248 285 11,300 -540 Descending Denver Center
09:03AM 39.5297 -104.6453 336° Northwest 231 266 10,800 -540 Descending Denver Center
09:04AM 39.5906 -104.6614 348° North 212 244 10,300 -780 Descending Denver Center
09:05AM 39.6439 -104.6622 359° North 192 221 9,300 -1,080 Descending Denver Center
09:06AM 39.6961 -104.6619 360° North 188 216 8,200 -1,140 Descending Denver Center
09:07AM 39.7475 -104.6617 360° North 186 214 7,100 -1,020 Descending Denver Center
09:08AM 39.7911 -104.6606 North 148 170 6,200 -900 Descending Denver Center